sensor_id;sensor_type;location;lat;lon;timestamp;P1;P2;P0
49462;PMS5003;35357;51.722;0.500;2022-09-13T00:00:23;11;11;
49462;PMS5003;35357;51.722;0.500;2022-09-13T00:02:50;14;12;
49462;PMS5003;35357;51.722;0.500;2022-09-13T00:05:17;12;12;
49462;PMS5003;35357;51.722;0.500;2022-09-13T00:07:43;12;12;
49462;PMS5003;35357;51.722;0.500;2022-09-13T00:10:10;12;11;
49462;PMS5003;35357;51.722;0.500;2022-09-13T00:12:37;11;11;
49462;PMS5003;35357;51.722;0.500;2022-09-13T00:15:05;12;12;
49462;PMS5003;35357;51.722;0.500;2022-09-13T00:17:33;10;10;
49462;PMS5003;35357;51.722;0.500;2022-09-13T00:20:00;10;10;
49462;PMS5003;35357;51.722;0.500;2022-09-13T00:22:28;11;10;
49462;PMS5003;35357;51.722;0.500;2022-09-13T00:24:54;10;10;
49462;PMS5003;35357;51.722;0.500;2022-09-13T00:27:22;12;11;
49462;PMS5003;35357;51.722;0.500;2022-09-13T00:29:49;12;12;
49462;PMS5003;35357;51.722;0.500;2022-09-13T00:32:17;10;10;
49462;PMS5003;35357;51.722;0.500;2022-09-13T00:34:44;12;12;
49462;PMS5003;35357;51.722;0.500;2022-09-13T00:37:11;11;11;
49462;PMS5003;35357;51.722;0.500;2022-09-13T00:39:39;12;12;
49462;PMS5003;35357;51.722;0.500;2022-09-13T00:42:08;12;11;
49462;PMS5003;35357;51.722;0.500;2022-09-13T00:44:54;12;12;
49462;PMS5003;35357;51.722;0.500;2022-09-13T00:47:25;10;10;
49462;PMS5003;35357;51.722;0.500;2022-09-13T00:50:00;13;13;
49462;PMS5003;35357;51.722;0.500;2022-09-13T00:52:33;12;12;
49462;PMS5003;35357;51.722;0.500;2022-09-13T00:55:03;13;12;
49462;PMS5003;35357;51.722;0.500;2022-09-13T00:57:37;10;10;
49462;PMS5003;35357;51.722;0.500;2022-09-13T01:00:07;9;8;
49462;PMS5003;35357;51.722;0.500;2022-09-13T01:02:39;16;15;
49462;PMS5003;35357;51.722;0.500;2022-09-13T01:05:10;12;12;
49462;PMS5003;35357;51.722;0.500;2022-09-13T01:07:40;12;10;
49462;PMS5003;35357;51.722;0.500;2022-09-13T01:10:07;12;12;
49462;PMS5003;35357;51.722;0.500;2022-09-13T01:12:38;15;13;
49462;PMS5003;35357;51.722;0.500;2022-09-13T01:15:11;12;12;
49462;PMS5003;35357;51.722;0.500;2022-09-13T01:17:38;11;10;
49462;PMS5003;35357;51.722;0.500;2022-09-13T01:20:06;9;9;
49462;PMS5003;35357;51.722;0.500;2022-09-13T01:22:39;12;11;
49462;PMS5003;35357;51.722;0.500;2022-09-13T01:26:39;9;9;
49462;PMS5003;35357;51.722;0.500;2022-09-13T01:29:22;13;13;
49462;PMS5003;35357;51.722;0.500;2022-09-13T01:33:08;11;11;
49462;PMS5003;35357;51.722;0.500;2022-09-13T01:35:49;14;14;
49462;PMS5003;35357;51.722;0.500;2022-09-13T01:38:27;14;13;
49462;PMS5003;35357;51.722;0.500;2022-09-13T01:41:05;11;11;
49462;PMS5003;35357;51.722;0.500;2022-09-13T01:43:48;13;12;
49462;PMS5003;35357;51.722;0.500;2022-09-13T01:46:23;9;9;
49462;PMS5003;35357;51.722;0.500;2022-09-13T01:48:58;9;9;
49462;PMS5003;35357;51.722;0.500;2022-09-13T01:51:35;11;11;
49462;PMS5003;35357;51.722;0.500;2022-09-13T01:54:11;11;11;
49462;PMS5003;35357;51.722;0.500;2022-09-13T01:56:45;13;13;
49462;PMS5003;35357;51.722;0.500;2022-09-13T01:59:23;12;12;
49462;PMS5003;35357;51.722;0.500;2022-09-13T02:02:02;11;11;
49462;PMS5003;35357;51.722;0.500;2022-09-13T02:04:35;11;11;
49462;PMS5003;35357;51.722;0.500;2022-09-13T02:07:07;15;13;
49462;PMS5003;35357;51.722;0.500;2022-09-13T02:09:38;15;15;
49462;PMS5003;35357;51.722;0.500;2022-09-13T02:12:09;13;12;
49462;PMS5003;35357;51.722;0.500;2022-09-13T02:14:42;16;15;
49462;PMS5003;35357;51.722;0.500;2022-09-13T02:17:12;18;18;
49462;PMS5003;35357;51.722;0.500;2022-09-13T02:19:44;17;17;
49462;PMS5003;35357;51.722;0.500;2022-09-13T02:22:19;16;16;
49462;PMS5003;35357;51.722;0.500;2022-09-13T02:24:54;14;14;
49462;PMS5003;35357;51.722;0.500;2022-09-13T02:27:25;19;18;
49462;PMS5003;35357;51.722;0.500;2022-09-13T02:29:59;16;15;
49462;PMS5003;35357;51.722;0.500;2022-09-13T02:32:30;13;13;
49462;PMS5003;35357;51.722;0.500;2022-09-13T02:35:03;18;18;
49462;PMS5003;35357;51.722;0.500;2022-09-13T02:37:34;18;18;
49462;PMS5003;35357;51.722;0.500;2022-09-13T02:40:06;18;17;
49462;PMS5003;35357;51.722;0.500;2022-09-13T02:42:37;16;16;
49462;PMS5003;35357;51.722;0.500;2022-09-13T02:45:08;17;17;
49462;PMS5003;35357;51.722;0.500;2022-09-13T02:47:39;15;15;
49462;PMS5003;35357;51.722;0.500;2022-09-13T02:50:18;17;16;
49462;PMS5003;35357;51.722;0.500;2022-09-13T02:52:57;20;20;
49462;PMS5003;35357;51.722;0.500;2022-09-13T02:55:33;18;18;
49462;PMS5003;35357;51.722;0.500;2022-09-13T02:58:09;20;19;
49462;PMS5003;35357;51.722;0.500;2022-09-13T03:00:41;16;16;
49462;PMS5003;35357;51.722;0.500;2022-09-13T03:03:10;20;20;
49462;PMS5003;35357;51.722;0.500;2022-09-13T03:05:41;16;15;
49462;PMS5003;35357;51.722;0.500;2022-09-13T03:08:10;16;16;
49462;PMS5003;35357;51.722;0.500;2022-09-13T03:10:42;18;17;
49462;PMS5003;35357;51.722;0.500;2022-09-13T03:13:35;16;16;
49462;PMS5003;35357;51.722;0.500;2022-09-13T03:16:21;18;17;
49462;PMS5003;35357;51.722;0.500;2022-09-13T03:19:02;17;16;
49462;PMS5003;35357;51.722;0.500;2022-09-13T03:21:48;18;17;
49462;PMS5003;35357;51.722;0.500;2022-09-13T03:24:27;18;16;
49462;PMS5003;35357;51.722;0.500;2022-09-13T03:27:07;20;20;
49462;PMS5003;35357;51.722;0.500;2022-09-13T03:29:44;17;16;
49462;PMS5003;35357;51.722;0.500;2022-09-13T03:32:23;16;15;
49462;PMS5003;35357;51.722;0.500;2022-09-13T03:35:02;18;17;
49462;PMS5003;35357;51.722;0.500;2022-09-13T03:37:35;18;17;
49462;PMS5003;35357;51.722;0.500;2022-09-13T03:40:11;13;13;
49462;PMS5003;35357;51.722;0.500;2022-09-13T03:42:43;11;11;
49462;PMS5003;35357;51.722;0.500;2022-09-13T03:45:15;13;13;
49462;PMS5003;35357;51.722;0.500;2022-09-13T03:47:46;12;12;
49462;PMS5003;35357;51.722;0.500;2022-09-13T03:50:16;11;11;
49462;PMS5003;35357;51.722;0.500;2022-09-13T03:52:49;11;11;
49462;PMS5003;35357;51.722;0.500;2022-09-13T03:55:21;10;10;
49462;PMS5003;35357;51.722;0.500;2022-09-13T03:57:49;10;9;
49462;PMS5003;35357;51.722;0.500;2022-09-13T04:00:16;9;9;
49462;PMS5003;35357;51.722;0.500;2022-09-13T04:02:43;9;9;
49462;PMS5003;35357;51.722;0.500;2022-09-13T04:05:11;8;8;
49462;PMS5003;35357;51.722;0.500;2022-09-13T04:07:38;7;7;
49462;PMS5003;35357;51.722;0.500;2022-09-13T04:10:05;8;8;
49462;PMS5003;35357;51.722;0.500;2022-09-13T04:12:34;7;7;
49462;PMS5003;35357;51.722;0.500;2022-09-13T04:15:01;6;6;
49462;PMS5003;35357;51.722;0.500;2022-09-13T04:17:29;7;7;
49462;PMS5003;35357;51.722;0.500;2022-09-13T04:19:55;7;6;
49462;PMS5003;35357;51.722;0.500;2022-09-13T04:22:22;5;5;
49462;PMS5003;35357;51.722;0.500;2022-09-13T04:24:49;4;4;
49462;PMS5003;35357;51.722;0.500;2022-09-13T04:27:16;5;5;
49462;PMS5003;35357;51.722;0.500;2022-09-13T04:29:42;5;5;
49462;PMS5003;35357;51.722;0.500;2022-09-13T04:32:09;6;6;
49462;PMS5003;35357;51.722;0.500;2022-09-13T04:34:37;4;4;
49462;PMS5003;35357;51.722;0.500;2022-09-13T04:37:04;6;6;
49462;PMS5003;35357;51.722;0.500;2022-09-13T04:39:31;5;5;
49462;PMS5003;35357;51.722;0.500;2022-09-13T04:41:58;7;7;
49462;PMS5003;35357;51.722;0.500;2022-09-13T04:44:25;6;6;
49462;PMS5003;35357;51.722;0.500;2022-09-13T04:46:52;6;6;
49462;PMS5003;35357;51.722;0.500;2022-09-13T04:49:19;6;6;
49462;PMS5003;35357;51.722;0.500;2022-09-13T04:51:47;6;6;
49462;PMS5003;35357;51.722;0.500;2022-09-13T04:54:14;6;6;
49462;PMS5003;35357;51.722;0.500;2022-09-13T04:56:42;6;6;
49462;PMS5003;35357;51.722;0.500;2022-09-13T04:59:10;6;6;
49462;PMS5003;35357;51.722;0.500;2022-09-13T05:01:37;8;8;
49462;PMS5003;35357;51.722;0.500;2022-09-13T05:04:06;7;6;
49462;PMS5003;35357;51.722;0.500;2022-09-13T05:06:34;9;9;
49462;PMS5003;35357;51.722;0.500;2022-09-13T05:09:02;6;6;
49462;PMS5003;35357;51.722;0.500;2022-09-13T05:11:29;9;9;
49462;PMS5003;35357;51.722;0.500;2022-09-13T05:13:58;8;8;
49462;PMS5003;35357;51.722;0.500;2022-09-13T05:16:26;6;6;
49462;PMS5003;35357;51.722;0.500;2022-09-13T05:18:55;9;8;
49462;PMS5003;35357;51.722;0.500;2022-09-13T05:21:23;9;8;
49462;PMS5003;35357;51.722;0.500;2022-09-13T05:23:50;7;7;
49462;PMS5003;35357;51.722;0.500;2022-09-13T05:26:18;10;10;
49462;PMS5003;35357;51.722;0.500;2022-09-13T05:28:47;9;9;
49462;PMS5003;35357;51.722;0.500;2022-09-13T05:31:15;6;6;
49462;PMS5003;35357;51.722;0.500;2022-09-13T05:33:45;7;7;
49462;PMS5003;35357;51.722;0.500;2022-09-13T05:36:14;7;7;
49462;PMS5003;35357;51.722;0.500;2022-09-13T05:38:41;9;9;
49462;PMS5003;35357;51.722;0.500;2022-09-13T05:41:08;8;8;
49462;PMS5003;35357;51.722;0.500;2022-09-13T05:43:35;9;9;
49462;PMS5003;35357;51.722;0.500;2022-09-13T05:46:03;8;8;
49462;PMS5003;35357;51.722;0.500;2022-09-13T05:48:33;9;8;
49462;PMS5003;35357;51.722;0.500;2022-09-13T05:51:04;8;8;
49462;PMS5003;35357;51.722;0.500;2022-09-13T05:53:33;8;8;
49462;PMS5003;35357;51.722;0.500;2022-09-13T05:56:01;8;7;
49462;PMS5003;35357;51.722;0.500;2022-09-13T05:58:28;9;8;
49462;PMS5003;35357;51.722;0.500;2022-09-13T06:00:55;9;9;
49462;PMS5003;35357;51.722;0.500;2022-09-13T06:03:23;11;11;
49462;PMS5003;35357;51.722;0.500;2022-09-13T06:05:53;10;10;
49462;PMS5003;35357;51.722;0.500;2022-09-13T06:08:21;10;9;
49462;PMS5003;35357;51.722;0.500;2022-09-13T06:10:53;12;12;
49462;PMS5003;35357;51.722;0.500;2022-09-13T06:13:22;9;9;
49462;PMS5003;35357;51.722;0.500;2022-09-13T06:15:50;12;11;
49462;PMS5003;35357;51.722;0.500;2022-09-13T06:18:17;11;10;
49462;PMS5003;35357;51.722;0.500;2022-09-13T06:20:45;14;12;
49462;PMS5003;35357;51.722;0.500;2022-09-13T06:23:12;12;12;
49462;PMS5003;35357;51.722;0.500;2022-09-13T06:25:40;12;11;
49462;PMS5003;35357;51.722;0.500;2022-09-13T06:28:08;15;15;
49462;PMS5003;35357;51.722;0.500;2022-09-13T06:30:36;14;14;
49462;PMS5003;35357;51.722;0.500;2022-09-13T06:33:03;15;15;
49462;PMS5003;35357;51.722;0.500;2022-09-13T06:35:31;14;14;
49462;PMS5003;35357;51.722;0.500;2022-09-13T06:37:58;14;13;
49462;PMS5003;35357;51.722;0.500;2022-09-13T06:40:25;19;17;
49462;PMS5003;35357;51.722;0.500;2022-09-13T06:42:53;21;19;
49462;PMS5003;35357;51.722;0.500;2022-09-13T06:45:20;18;18;
49462;PMS5003;35357;51.722;0.500;2022-09-13T06:47:48;19;18;
49462;PMS5003;35357;51.722;0.500;2022-09-13T06:50:15;16;16;
49462;PMS5003;35357;51.722;0.500;2022-09-13T06:52:43;18;17;
49462;PMS5003;35357;51.722;0.500;2022-09-13T06:55:10;16;15;
49462;PMS5003;35357;51.722;0.500;2022-09-13T06:57:37;17;16;
49462;PMS5003;35357;51.722;0.500;2022-09-13T07:00:05;14;14;
49462;PMS5003;35357;51.722;0.500;2022-09-13T07:02:32;13;11;
49462;PMS5003;35357;51.722;0.500;2022-09-13T07:04:59;15;14;
49462;PMS5003;35357;51.722;0.500;2022-09-13T07:07:27;10;9;
49462;PMS5003;35357;51.722;0.500;2022-09-13T07:09:53;12;11;
49462;PMS5003;35357;51.722;0.500;2022-09-13T07:12:21;14;13;
49462;PMS5003;35357;51.722;0.500;2022-09-13T07:14:48;14;13;
49462;PMS5003;35357;51.722;0.500;2022-09-13T07:17:15;11;11;
49462;PMS5003;35357;51.722;0.500;2022-09-13T07:19:42;10;10;
49462;PMS5003;35357;51.722;0.500;2022-09-13T07:22:09;13;12;
49462;PMS5003;35357;51.722;0.500;2022-09-13T07:24:37;12;12;
49462;PMS5003;35357;51.722;0.500;2022-09-13T07:27:04;13;12;
49462;PMS5003;35357;51.722;0.500;2022-09-13T07:29:31;11;11;
49462;PMS5003;35357;51.722;0.500;2022-09-13T07:31:58;12;11;
49462;PMS5003;35357;51.722;0.500;2022-09-13T07:34:26;12;11;
49462;PMS5003;35357;51.722;0.500;2022-09-13T07:36:53;8;8;
49462;PMS5003;35357;51.722;0.500;2022-09-13T07:39:21;9;9;
49462;PMS5003;35357;51.722;0.500;2022-09-13T07:41:49;13;12;
49462;PMS5003;35357;51.722;0.500;2022-09-13T07:44:18;9;9;
49462;PMS5003;35357;51.722;0.500;2022-09-13T07:46:45;11;11;
49462;PMS5003;35357;51.722;0.500;2022-09-13T07:49:13;14;14;
49462;PMS5003;35357;51.722;0.500;2022-09-13T07:51:44;13;12;
49462;PMS5003;35357;51.722;0.500;2022-09-13T07:54:13;15;14;
49462;PMS5003;35357;51.722;0.500;2022-09-13T07:56:42;14;14;
49462;PMS5003;35357;51.722;0.500;2022-09-13T07:59:11;13;11;
49462;PMS5003;35357;51.722;0.500;2022-09-13T08:01:40;9;9;
49462;PMS5003;35357;51.722;0.500;2022-09-13T08:04:09;10;10;
49462;PMS5003;35357;51.722;0.500;2022-09-13T08:06:38;7;7;
49462;PMS5003;35357;51.722;0.500;2022-09-13T08:09:06;8;8;
49462;PMS5003;35357;51.722;0.500;2022-09-13T08:11:35;6;6;
49462;PMS5003;35357;51.722;0.500;2022-09-13T08:14:04;11;8;
49462;PMS5003;35357;51.722;0.500;2022-09-13T08:16:33;7;6;
49462;PMS5003;35357;51.722;0.500;2022-09-13T08:19:01;5;5;
49462;PMS5003;35357;51.722;0.500;2022-09-13T08:21:31;6;6;
49462;PMS5003;35357;51.722;0.500;2022-09-13T08:23:59;4;4;
49462;PMS5003;35357;51.722;0.500;2022-09-13T08:26:27;6;6;
49462;PMS5003;35357;51.722;0.500;2022-09-13T08:28:56;6;6;
49462;PMS5003;35357;51.722;0.500;2022-09-13T08:31:24;5;5;
49462;PMS5003;35357;51.722;0.500;2022-09-13T08:33:53;5;5;
49462;PMS5003;35357;51.722;0.500;2022-09-13T08:36:21;5;5;
49462;PMS5003;35357;51.722;0.500;2022-09-13T08:38:49;6;6;
49462;PMS5003;35357;51.722;0.500;2022-09-13T08:41:22;4;4;
49462;PMS5003;35357;51.722;0.500;2022-09-13T08:44:04;4;4;
49462;PMS5003;35357;51.722;0.500;2022-09-13T08:46:42;6;6;
49462;PMS5003;35357;51.722;0.500;2022-09-13T08:49:12;6;6;
49462;PMS5003;35357;51.722;0.500;2022-09-13T08:51:44;6;6;
49462;PMS5003;35357;51.722;0.500;2022-09-13T08:54:14;4;4;
49462;PMS5003;35357;51.722;0.500;2022-09-13T08:56:43;6;5;
49462;PMS5003;35357;51.722;0.500;2022-09-13T08:59:23;6;6;
49462;PMS5003;35357;51.722;0.500;2022-09-13T09:02:04;5;5;
49462;PMS5003;35357;51.722;0.500;2022-09-13T09:04:43;6;6;
49462;PMS5003;35357;51.722;0.500;2022-09-13T09:07:16;5;4;
49462;PMS5003;35357;51.722;0.500;2022-09-13T09:09:48;7;6;
49462;PMS5003;35357;51.722;0.500;2022-09-13T09:12:22;6;6;
49462;PMS5003;35357;51.722;0.500;2022-09-13T09:14:56;5;5;
49462;PMS5003;35357;51.722;0.500;2022-09-13T09:17:29;4;4;
49462;PMS5003;35357;51.722;0.500;2022-09-13T09:20:07;7;7;
49462;PMS5003;35357;51.722;0.500;2022-09-13T09:22:41;7;5;
49462;PMS5003;35357;51.722;0.500;2022-09-13T09:25:10;4;4;
49462;PMS5003;35357;51.722;0.500;2022-09-13T09:27:38;5;5;
49462;PMS5003;35357;51.722;0.500;2022-09-13T09:30:05;7;6;
49462;PMS5003;35357;51.722;0.500;2022-09-13T09:32:44;5;5;
49462;PMS5003;35357;51.722;0.500;2022-09-13T09:35:20;6;5;
49462;PMS5003;35357;51.722;0.500;2022-09-13T09:38:04;6;6;
49462;PMS5003;35357;51.722;0.500;2022-09-13T09:40:44;7;6;
49462;PMS5003;35357;51.722;0.500;2022-09-13T09:43:14;5;5;
49462;PMS5003;35357;51.722;0.500;2022-09-13T09:45:46;5;5;
49462;PMS5003;35357;51.722;0.500;2022-09-13T09:48:16;7;7;
49462;PMS5003;35357;51.722;0.500;2022-09-13T09:50:49;7;7;
49462;PMS5003;35357;51.722;0.500;2022-09-13T09:53:20;5;5;
49462;PMS5003;35357;51.722;0.500;2022-09-13T09:55:51;5;5;
49462;PMS5003;35357;51.722;0.500;2022-09-13T09:58:35;8;6;
49462;PMS5003;35357;51.722;0.500;2022-09-13T10:01:04;6;5;
49462;PMS5003;35357;51.722;0.500;2022-09-13T10:03:40;6;5;
49462;PMS5003;35357;51.722;0.500;2022-09-13T10:06:08;6;6;
49462;PMS5003;35357;51.722;0.500;2022-09-13T10:08:40;6;6;
49462;PMS5003;35357;51.722;0.500;2022-09-13T10:11:08;6;6;
49462;PMS5003;35357;51.722;0.500;2022-09-13T10:13:35;7;6;
49462;PMS5003;35357;51.722;0.500;2022-09-13T10:16:04;7;6;
49462;PMS5003;35357;51.722;0.500;2022-09-13T10:18:48;5;5;
49462;PMS5003;35357;51.722;0.500;2022-09-13T10:21:20;7;7;
49462;PMS5003;35357;51.722;0.500;2022-09-13T10:23:49;5;5;
49462;PMS5003;35357;51.722;0.500;2022-09-13T10:26:17;4;4;
49462;PMS5003;35357;51.722;0.500;2022-09-13T10:28:50;6;5;
49462;PMS5003;35357;51.722;0.500;2022-09-13T10:31:27;3;3;
49462;PMS5003;35357;51.722;0.500;2022-09-13T10:33:59;6;5;
49462;PMS5003;35357;51.722;0.500;2022-09-13T10:36:32;5;5;
49462;PMS5003;35357;51.722;0.500;2022-09-13T10:39:02;4;4;
49462;PMS5003;35357;51.722;0.500;2022-09-13T10:41:33;4;3;
49462;PMS5003;35357;51.722;0.500;2022-09-13T10:44:05;4;4;
49462;PMS5003;35357;51.722;0.500;2022-09-13T10:46:48;3;3;
49462;PMS5003;35357;51.722;0.500;2022-09-13T10:49:34;3;3;
49462;PMS5003;35357;51.722;0.500;2022-09-13T10:52:29;3;3;
49462;PMS5003;35357;51.722;0.500;2022-09-13T10:55:32;4;4;
49462;PMS5003;35357;51.722;0.500;2022-09-13T10:58:18;2;2;
49462;PMS5003;35357;51.722;0.500;2022-09-13T11:00:54;3;3;
49462;PMS5003;35357;51.722;0.500;2022-09-13T11:03:46;3;3;
49462;PMS5003;35357;51.722;0.500;2022-09-13T11:06:32;4;3;
49462;PMS5003;35357;51.722;0.500;2022-09-13T11:09:08;4;4;
49462;PMS5003;35357;51.722;0.500;2022-09-13T11:11:40;3;2;
49462;PMS5003;35357;51.722;0.500;2022-09-13T11:14:17;4;4;
49462;PMS5003;35357;51.722;0.500;2022-09-13T11:16:58;4;4;
49462;PMS5003;35357;51.722;0.500;2022-09-13T11:19:36;5;5;
49462;PMS5003;35357;51.722;0.500;2022-09-13T11:22:18;7;6;
49462;PMS5003;35357;51.722;0.500;2022-09-13T11:24:58;5;5;
49462;PMS5003;35357;51.722;0.500;2022-09-13T11:27:39;4;4;
49462;PMS5003;35357;51.722;0.500;2022-09-13T11:30:15;4;3;
49462;PMS5003;35357;51.722;0.500;2022-09-13T11:32:57;6;6;
49462;PMS5003;35357;51.722;0.500;2022-09-13T11:35:42;7;6;
49462;PMS5003;35357;51.722;0.500;2022-09-13T11:38:35;5;4;
49462;PMS5003;35357;51.722;0.500;2022-09-13T11:41:16;7;7;
49462;PMS5003;35357;51.722;0.500;2022-09-13T11:43:59;7;7;
49462;PMS5003;35357;51.722;0.500;2022-09-13T11:46:49;6;5;
49462;PMS5003;35357;51.722;0.500;2022-09-13T11:49:30;4;4;
49462;PMS5003;35357;51.722;0.500;2022-09-13T11:52:10;5;5;
49462;PMS5003;35357;51.722;0.500;2022-09-13T11:54:51;4;4;
49462;PMS5003;35357;51.722;0.500;2022-09-13T11:57:28;4;4;
49462;PMS5003;35357;51.722;0.500;2022-09-13T12:00:01;4;4;
49462;PMS5003;35357;51.722;0.500;2022-09-13T12:02:35;5;5;
49462;PMS5003;35357;51.722;0.500;2022-09-13T12:05:09;4;4;
49462;PMS5003;35357;51.722;0.500;2022-09-13T12:07:42;3;3;
49462;PMS5003;35357;51.722;0.500;2022-09-13T12:10:14;3;3;
49462;PMS5003;35357;51.722;0.500;2022-09-13T12:12:45;3;3;
49462;PMS5003;35357;51.722;0.500;2022-09-13T12:15:15;4;4;
49462;PMS5003;35357;51.722;0.500;2022-09-13T12:17:47;5;5;
49462;PMS5003;35357;51.722;0.500;2022-09-13T12:20:19;4;3;
49462;PMS5003;35357;51.722;0.500;2022-09-13T12:22:55;4;4;
49462;PMS5003;35357;51.722;0.500;2022-09-13T12:25:26;3;3;
49462;PMS5003;35357;51.722;0.500;2022-09-13T12:28:02;5;4;
49462;PMS5003;35357;51.722;0.500;2022-09-13T12:30:38;3;3;
49462;PMS5003;35357;51.722;0.500;2022-09-13T12:33:12;5;5;
49462;PMS5003;35357;51.722;0.500;2022-09-13T12:35:43;4;4;
49462;PMS5003;35357;51.722;0.500;2022-09-13T12:38:25;5;4;
49462;PMS5003;35357;51.722;0.500;2022-09-13T12:41:07;4;4;
49462;PMS5003;35357;51.722;0.500;2022-09-13T12:43:48;4;4;
49462;PMS5003;35357;51.722;0.500;2022-09-13T12:46:43;5;5;
49462;PMS5003;35357;51.722;0.500;2022-09-13T12:50:36;4;4;
49462;PMS5003;35357;51.722;0.500;2022-09-13T12:53:17;4;4;
49462;PMS5003;35357;51.722;0.500;2022-09-13T12:56:00;4;4;
49462;PMS5003;35357;51.722;0.500;2022-09-13T12:58:44;4;4;
49462;PMS5003;35357;51.722;0.500;2022-09-13T13:01:29;3;3;
49462;PMS5003;35357;51.722;0.500;2022-09-13T13:04:02;3;3;
49462;PMS5003;35357;51.722;0.500;2022-09-13T13:06:36;4;4;
49462;PMS5003;35357;51.722;0.500;2022-09-13T13:09:20;3;3;
49462;PMS5003;35357;51.722;0.500;2022-09-13T13:11:50;6;6;
49462;PMS5003;35357;51.722;0.500;2022-09-13T13:14:26;7;6;
49462;PMS5003;35357;51.722;0.500;2022-09-13T13:17:43;5;5;
49462;PMS5003;35357;51.722;0.500;2022-09-13T13:21:02;5;5;
49462;PMS5003;35357;51.722;0.500;2022-09-13T13:23:32;3;3;
49462;PMS5003;35357;51.722;0.500;2022-09-13T13:26:02;4;4;
49462;PMS5003;35357;51.722;0.500;2022-09-13T13:29:13;5;5;
49462;PMS5003;35357;51.722;0.500;2022-09-13T13:31:43;4;3;
49462;PMS5003;35357;51.722;0.500;2022-09-13T13:34:51;5;5;
49462;PMS5003;35357;51.722;0.500;2022-09-13T13:37:27;5;5;
49462;PMS5003;35357;51.722;0.500;2022-09-13T13:40:32;3;3;
49462;PMS5003;35357;51.722;0.500;2022-09-13T13:43:31;3;3;
49462;PMS5003;35357;51.722;0.500;2022-09-13T13:46:35;4;4;
49462;PMS5003;35357;51.722;0.500;2022-09-13T13:50:12;3;3;
49462;PMS5003;35357;51.722;0.500;2022-09-13T13:52:50;4;4;
49462;PMS5003;35357;51.722;0.500;2022-09-13T13:55:27;3;3;
49462;PMS5003;35357;51.722;0.500;2022-09-13T13:58:07;5;5;
49462;PMS5003;35357;51.722;0.500;2022-09-13T14:00:50;37;36;
49462;PMS5003;35357;51.722;0.500;2022-09-13T14:03:22;18;18;
49462;PMS5003;35357;51.722;0.500;2022-09-13T14:05:57;4;4;
49462;PMS5003;35357;51.722;0.500;2022-09-13T14:08:33;5;5;
49462;PMS5003;35357;51.722;0.500;2022-09-13T14:11:12;3;3;
49462;PMS5003;35357;51.722;0.500;2022-09-13T14:13:50;5;5;
49462;PMS5003;35357;51.722;0.500;2022-09-13T14:16:30;4;3;
49462;PMS5003;35357;51.722;0.500;2022-09-13T14:19:17;3;3;
49462;PMS5003;35357;51.722;0.500;2022-09-13T14:21:50;3;3;
49462;PMS5003;35357;51.722;0.500;2022-09-13T14:24:35;3;3;
49462;PMS5003;35357;51.722;0.500;2022-09-13T14:27:03;3;3;
49462;PMS5003;35357;51.722;0.500;2022-09-13T14:29:31;4;4;
49462;PMS5003;35357;51.722;0.500;2022-09-13T14:32:01;3;3;
49462;PMS5003;35357;51.722;0.500;2022-09-13T14:34:33;3;3;
49462;PMS5003;35357;51.722;0.500;2022-09-13T14:37:03;4;4;
49462;PMS5003;35357;51.722;0.500;2022-09-13T14:39:31;3;3;
49462;PMS5003;35357;51.722;0.500;2022-09-13T14:41:59;4;4;
49462;PMS5003;35357;51.722;0.500;2022-09-13T14:44:29;2;2;
49462;PMS5003;35357;51.722;0.500;2022-09-13T14:46:59;2;2;
49462;PMS5003;35357;51.722;0.500;2022-09-13T14:49:30;3;3;
49462;PMS5003;35357;51.722;0.500;2022-09-13T14:52:01;2;2;
49462;PMS5003;35357;51.722;0.500;2022-09-13T14:54:33;3;3;
49462;PMS5003;35357;51.722;0.500;2022-09-13T14:57:05;3;2;
49462;PMS5003;35357;51.722;0.500;2022-09-13T14:59:35;4;4;
49462;PMS5003;35357;51.722;0.500;2022-09-13T15:02:13;3;3;
49462;PMS5003;35357;51.722;0.500;2022-09-13T15:04:45;4;3;
49462;PMS5003;35357;51.722;0.500;2022-09-13T15:07:20;4;4;
49462;PMS5003;35357;51.722;0.500;2022-09-13T15:09:54;2;2;
49462;PMS5003;35357;51.722;0.500;2022-09-13T15:12:23;4;3;
49462;PMS5003;35357;51.722;0.500;2022-09-13T15:15:56;4;4;
49462;PMS5003;35357;51.722;0.500;2022-09-13T15:18:25;3;3;
49462;PMS5003;35357;51.722;0.500;2022-09-13T15:20:56;1;1;
49462;PMS5003;35357;51.722;0.500;2022-09-13T15:23:26;3;3;
49462;PMS5003;35357;51.722;0.500;2022-09-13T15:25:56;1;1;
49462;PMS5003;35357;51.722;0.500;2022-09-13T15:28:27;4;4;
49462;PMS5003;35357;51.722;0.500;2022-09-13T15:30:56;2;2;
49462;PMS5003;35357;51.722;0.500;2022-09-13T15:33:26;1;1;
49462;PMS5003;35357;51.722;0.500;2022-09-13T15:36:27;2;2;
49462;PMS5003;35357;51.722;0.500;2022-09-13T15:38:57;3;2;
49462;PMS5003;35357;51.722;0.500;2022-09-13T15:41:28;2;2;
49462;PMS5003;35357;51.722;0.500;2022-09-13T15:43:57;3;3;
49462;PMS5003;35357;51.722;0.500;2022-09-13T15:46:24;3;3;
49462;PMS5003;35357;51.722;0.500;2022-09-13T15:48:53;4;4;
49462;PMS5003;35357;51.722;0.500;2022-09-13T15:51:22;2;2;
49462;PMS5003;35357;51.722;0.500;2022-09-13T15:53:50;3;3;
49462;PMS5003;35357;51.722;0.500;2022-09-13T15:56:19;3;3;
49462;PMS5003;35357;51.722;0.500;2022-09-13T15:58:49;2;2;
49462;PMS5003;35357;51.722;0.500;2022-09-13T16:01:17;3;3;
49462;PMS5003;35357;51.722;0.500;2022-09-13T16:03:44;2;2;
49462;PMS5003;35357;51.722;0.500;2022-09-13T16:06:10;1;1;
49462;PMS5003;35357;51.722;0.500;2022-09-13T16:08:38;3;3;
49462;PMS5003;35357;51.722;0.500;2022-09-13T16:11:06;2;2;
49462;PMS5003;35357;51.722;0.500;2022-09-13T16:13:33;3;2;
49462;PMS5003;35357;51.722;0.500;2022-09-13T16:16:01;2;2;
49462;PMS5003;35357;51.722;0.500;2022-09-13T16:18:29;1;1;
49462;PMS5003;35357;51.722;0.500;2022-09-13T16:20:56;2;2;
49462;PMS5003;35357;51.722;0.500;2022-09-13T16:23:24;3;3;
49462;PMS5003;35357;51.722;0.500;2022-09-13T16:25:52;3;3;
49462;PMS5003;35357;51.722;0.500;2022-09-13T16:28:21;3;3;
49462;PMS5003;35357;51.722;0.500;2022-09-13T16:30:48;5;2;
49462;PMS5003;35357;51.722;0.500;2022-09-13T16:33:16;2;2;
49462;PMS5003;35357;51.722;0.500;2022-09-13T16:35:42;5;5;
49462;PMS5003;35357;51.722;0.500;2022-09-13T16:38:10;4;3;
49462;PMS5003;35357;51.722;0.500;2022-09-13T16:40:38;4;3;
49462;PMS5003;35357;51.722;0.500;2022-09-13T16:43:05;2;2;
49462;PMS5003;35357;51.722;0.500;2022-09-13T16:45:33;3;3;
49462;PMS5003;35357;51.722;0.500;2022-09-13T16:48:04;3;3;
49462;PMS5003;35357;51.722;0.500;2022-09-13T16:50:31;2;2;
49462;PMS5003;35357;51.722;0.500;2022-09-13T16:52:59;4;4;
49462;PMS5003;35357;51.722;0.500;2022-09-13T16:55:26;3;2;
49462;PMS5003;35357;51.722;0.500;2022-09-13T16:57:52;3;3;
49462;PMS5003;35357;51.722;0.500;2022-09-13T17:00:20;3;3;
49462;PMS5003;35357;51.722;0.500;2022-09-13T17:02:47;3;2;
49462;PMS5003;35357;51.722;0.500;2022-09-13T17:05:14;1;1;
49462;PMS5003;35357;51.722;0.500;2022-09-13T17:07:42;2;2;
49462;PMS5003;35357;51.722;0.500;2022-09-13T17:10:09;2;2;
49462;PMS5003;35357;51.722;0.500;2022-09-13T17:12:37;3;2;
49462;PMS5003;35357;51.722;0.500;2022-09-13T17:15:06;2;2;
49462;PMS5003;35357;51.722;0.500;2022-09-13T17:17:34;3;3;
49462;PMS5003;35357;51.722;0.500;2022-09-13T17:20:04;3;3;
49462;PMS5003;35357;51.722;0.500;2022-09-13T17:22:34;4;4;